Terminal Aerodrome Forecast
Issued by NWS

Home | Current Version | Previous Version | Text Only | Print | Product List | Glossary On
Versions: 1 2 3 4 5 6 7 8 9 10 11 12 13 14 15 16 17 18
000
FTUS45 KFGZ 202300
TAFGCN
TAF
KGCN 202330Z 2100/2124 VRB05KT P6SM BKN090
     FM210100 VRB04KT P6SM FEW090 FEW250
     FM212000 20008G16KT P6SM SCT100 SCT250=

USA.gov is the U.S. government's official web portal to all federal, state and local government web resources and services.